Impacts METAR Board INFO
IDs:

KMEM - Memphis Intl, TN, US

Updated at: 0724 UTC 11 Dec 2017
Potential Impact None Slight Moderate High
Time10/19Z 10/20Z 10/21Z 10/22Z 10/23Z 11/00Z 11/01Z 11/02Z 11/03Z 11/04Z 11/05Z 11/06Z 11/07Z
VIS10 10 10 10 10 10 10 10 10 10 10 10 10
CIG-- -- -- -- -- -- -- -- -- -- -- -- --
CoverFEWFEWFEWFEWFEWCLRCLRCLRCLRCLRCLRCLRCLR
FltCatVFRVFRVFRVFRVFRVFRVFRVFRVFRVFRVFRVFRVFR
WX--------------------------
WDir20023022021021020020021020002702500
WSpd15 12 15 10 10 8 8 4 6 3 4 4 0
WGst21 -- 22 -- 18 -- -- -- -- -- -- -- --
Raw hourly METARs
KMEM 101854Z 20015G21KT 10SM FEW060 11/M04 A3021 RMK AO2 SLP232 T01061039 $
KMEM 101954Z 23012KT 10SM FEW150 12/M03 A3019 RMK AO2 SLP223 T01171033 $
KMEM 102054Z 22015G22KT 10SM FEW150 12/M02 A3017 RMK AO2 SLP218 T01171022 56027 $
KMEM 102154Z 21010KT 10SM FEW150 11/M02 A3018 RMK AO2 SLP220 T01111022 $
KMEM 102254Z 21010G18KT 10SM FEW150 10/M02 A3017 RMK AO2 SLP217 T01001017 $
KMEM 102354Z 20008KT 10SM CLR 09/M01 A3017 RMK AO2 SLP220 T00891011 10122 20089 51000 $
KMEM 110054Z 20008KT 10SM CLR 08/M01 A3018 RMK AO2 SLP221 T00831011 $
KMEM 110154Z 21004KT 10SM CLR 08/M01 A3018 RMK AO2 SLP222 T00781011 $
KMEM 110254Z 20006KT 10SM CLR 06/M01 A3019 RMK AO2 SLP223 T00611011 51005 $
KMEM 110354Z VRB03KT 10SM CLR 06/M01 A3019 RMK AO2 SLP225 T00561011 $
KMEM 110454Z 27004KT 10SM CLR 08/M01 A3019 RMK AO2 SLP224 T00781006 $
KMEM 110554Z 25004KT 10SM CLR 07/M01 A3018 RMK AO2 SLP220 T00721006 10089 20044 401221039 58002 $
KMEM 110654Z 00000KT 10SM CLR 06/M01 A3018 RMK AO2 SLP220 T00561006 $